createdAt,value
2019-04-23T00:02:13.524Z,6.60
2019-04-23T00:04:35.396Z,4.47
2019-04-23T00:07:26.488Z,5.97
2019-04-23T00:09:46.792Z,8.65
2019-04-23T00:12:20.568Z,7.50
2019-04-23T00:15:03.345Z,5.67
2019-04-23T00:17:22.609Z,5.67
2019-04-23T00:19:55.679Z,5.73
2019-04-23T00:22:43.495Z,5.17
2019-04-23T00:25:43.889Z,5.23
2019-04-23T00:28:09.512Z,7.67
2019-04-23T00:30:50.017Z,6.27
2019-04-23T00:33:05.823Z,6.33
2019-04-23T00:35:34.051Z,7.93
2019-04-23T00:38:14.114Z,6.50
2019-04-23T00:40:40.828Z,9.10
2019-04-23T00:43:09.054Z,9.13
2019-04-23T00:48:15.648Z,6.87
2019-04-23T00:50:56.224Z,6.10
2019-04-23T00:53:17.382Z,7.37
2019-04-23T00:55:47.591Z,6.78
2019-04-23T00:58:25.015Z,6.17
2019-04-23T01:00:53.977Z,7.10
2019-04-23T01:03:21.509Z,7.08
2019-04-23T01:05:52.701Z,7.07
2019-04-23T01:08:25.011Z,7.23
2019-04-23T01:11:13.339Z,6.73
2019-04-23T01:13:31.893Z,7.87
2019-04-23T01:18:48.277Z,6.50
2019-04-23T01:20:53.993Z,8.83
2019-04-23T01:23:43.747Z,4.70
2019-04-23T01:26:32.975Z,6.35
2019-04-23T01:29:06.958Z,5.63
2019-04-23T01:31:39.494Z,8.03
2019-04-23T01:34:15.313Z,8.03
2019-04-23T01:36:37.713Z,7.83
2019-04-23T01:39:14.347Z,10.57
2019-04-23T01:41:47.818Z,5.70
2019-04-23T01:44:18.169Z,7.37
2019-04-23T01:46:49.196Z,5.50
2019-04-23T01:49:20.722Z,8.20
2019-04-23T01:51:55.764Z,8.70
2019-04-23T01:54:17.745Z,7.33
2019-04-23T01:56:47.203Z,5.47
2019-04-23T01:59:24.716Z,6.23
2019-04-23T02:07:04.435Z,6.83
2019-04-23T02:09:36.434Z,6.30
2019-04-23T02:12:07.137Z,9.40
2019-04-23T02:14:34.901Z,8.33
2019-04-23T02:17:00.074Z,6.13
2019-04-23T02:19:43.299Z,6.73
2019-04-23T02:22:21.686Z,7.60
2019-04-23T02:24:47.505Z,6.67
2019-04-23T02:27:13.341Z,5.90
2019-04-23T02:32:22.177Z,6.60
2019-04-23T02:34:58.105Z,6.70
2019-04-23T02:37:40.772Z,6.77
2019-04-23T02:42:40.786Z,5.45
2019-04-23T02:44:53.853Z,5.43
2019-04-23T02:47:32.561Z,9.20
2019-04-23T02:50:29.061Z,5.33
2019-04-23T02:52:37.088Z,9.27
2019-04-23T02:55:08.769Z,7.50
2019-04-23T02:57:38.882Z,7.07
2019-04-23T03:02:43.643Z,8.90
2019-04-23T03:05:11.668Z,7.43
2019-04-23T03:15:32.962Z,6.37
2019-04-23T03:18:21.136Z,8.70
2019-04-23T03:25:56.921Z,6.73
2019-04-23T03:28:37.869Z,6.13
2019-04-23T03:32:48.607Z,7.77
2019-04-23T03:46:16.200Z,7.67
2019-04-23T03:48:51.199Z,8.57
2019-04-23T03:51:09.629Z,6.20
2019-04-23T04:01:23.602Z,6.80
2019-04-23T04:06:37.985Z,8.27
2019-04-23T04:09:02.425Z,9.33
2019-04-23T04:11:21.991Z,7.90
2019-04-23T04:14:10.242Z,6.55
2019-04-23T04:16:28.266Z,6.53
2019-04-23T04:24:21.782Z,7.35
2019-04-23T04:29:21.632Z,6.63
2019-04-23T04:36:45.304Z,7.55
2019-04-23T04:39:03.083Z,7.53
2019-04-23T04:41:54.860Z,7.20
2019-04-23T04:44:30.953Z,9.00
2019-04-23T04:46:47.814Z,8.87
2019-04-23T04:49:23.785Z,7.80
2019-04-23T04:54:13.923Z,7.97
2019-04-23T04:56:58.176Z,8.50
2019-04-23T04:59:25.908Z,8.35
2019-04-23T05:01:58.533Z,6.17
2019-04-23T05:04:30.800Z,7.20
2019-04-23T05:07:04.447Z,8.13
2019-04-23T05:09:29.394Z,8.73
2019-04-23T05:12:01.520Z,7.37
2019-04-23T05:16:58.729Z,7.50
2019-04-23T05:22:05.330Z,5.93
2019-04-23T05:24:35.144Z,8.33
2019-04-23T05:29:31.280Z,8.20
2019-04-23T05:31:58.118Z,10.63
2019-04-23T05:34:36.169Z,8.93
2019-04-23T05:37:06.329Z,8.37
2019-04-23T05:42:04.392Z,9.40
2019-04-23T05:44:46.230Z,7.63
2019-04-23T05:47:18.276Z,8.67
2019-04-23T05:49:47.501Z,7.27
2019-04-23T05:52:29.741Z,9.97
2019-04-23T05:54:52.762Z,10.17
2019-04-23T05:57:14.001Z,8.97
2019-04-23T05:59:48.231Z,10.65
2019-04-23T06:02:17.744Z,11.20
2019-04-23T06:04:49.859Z,10.47
2019-04-23T06:07:28.930Z,8.97
2019-04-23T06:09:55.798Z,9.73
2019-04-23T06:12:21.937Z,10.00
2019-04-23T06:17:25.431Z,10.13
2019-04-23T06:20:02.875Z,10.07
2019-04-23T06:22:35.324Z,8.93
2019-04-23T06:25:30.811Z,6.27
2019-04-23T06:27:32.056Z,10.33
2019-04-23T06:30:00.872Z,8.80
2019-04-23T06:32:55.157Z,8.30
2019-04-23T06:35:08.716Z,13.00
2019-04-23T06:40:08.739Z,8.67
2019-04-23T06:42:56.314Z,9.57
2019-04-23T06:45:22.126Z,9.43
2019-04-23T06:47:54.038Z,12.33
2019-04-23T06:50:27.148Z,8.87
2019-04-23T06:52:57.429Z,10.87
2019-04-23T06:55:34.184Z,8.37
2019-04-23T06:58:08.381Z,10.43
2019-04-23T07:00:41.219Z,8.10
2019-04-23T07:03:15.055Z,9.57
2019-04-23T07:06:13.834Z,11.48
2019-04-23T07:08:48.526Z,11.87
2019-04-23T07:11:08.321Z,10.13
2019-04-23T07:13:50.759Z,6.33
2019-04-23T07:16:03.408Z,8.57
2019-04-23T07:18:38.030Z,6.93
2019-04-23T07:21:13.274Z,8.63
2019-04-23T07:23:46.800Z,9.93
2019-04-23T07:26:27.375Z,10.63
2019-04-23T07:28:50.207Z,11.73
2019-04-23T07:31:20.550Z,8.23
2019-04-23T07:33:52.799Z,9.23
2019-04-23T07:36:23.940Z,7.03
2019-04-23T07:39:17.536Z,7.33
2019-04-23T07:41:41.162Z,9.33
2019-04-23T07:46:52.777Z,7.67
2019-04-23T07:49:17.154Z,12.23
2019-04-23T07:51:46.777Z,9.26
2019-04-23T07:54:22.496Z,12.20
2019-04-23T07:56:54.018Z,8.27
2019-04-23T07:59:27.765Z,8.73
2019-04-23T08:04:33.549Z,10.15
2019-04-23T08:06:56.044Z,10.05
2019-04-23T08:09:28.192Z,11.78
2019-04-23T08:11:56.263Z,15.75
2019-04-23T08:14:33.223Z,10.25
2019-04-23T08:16:58.234Z,13.57
2019-04-23T08:19:33.426Z,10.60
2019-04-23T08:22:18.272Z,8.44
2019-04-23T08:25:03.556Z,9.18
2019-04-23T08:27:24.170Z,9.33
2019-04-23T08:29:55.421Z,8.83
2019-04-23T08:35:04.441Z,9.33
2019-04-23T08:37:47.907Z,9.16
2019-04-23T08:40:01.476Z,9.18
2019-04-23T08:50:46.478Z,6.17
2019-04-23T08:53:29.721Z,9.73
2019-04-23T08:56:02.002Z,8.83
2019-04-23T08:58:29.227Z,8.10
2019-04-23T09:06:00.750Z,6.53
2019-04-23T09:11:04.770Z,8.93
2019-04-23T09:16:05.271Z,4.98
2019-04-23T09:18:42.340Z,3.75
2019-04-23T09:21:05.441Z,9.28
2019-04-23T09:23:39.208Z,9.23
2019-04-23T09:26:03.848Z,5.40
2019-04-23T09:28:44.801Z,6.87
2019-04-23T09:31:55.131Z,7.57
2019-04-23T09:34:00.257Z,12.63
2019-04-23T09:36:43.519Z,6.58
2019-04-23T09:39:12.878Z,9.07
2019-04-23T09:41:38.202Z,5.10
2019-04-23T09:44:51.072Z,5.62
2019-04-23T09:47:08.453Z,7.23
2019-04-23T09:49:39.412Z,6.67
2019-04-23T09:52:13.293Z,5.65
2019-04-23T09:55:02.120Z,7.13
2019-04-23T09:57:04.606Z,5.97
2019-04-23T09:59:47.343Z,7.07
2019-04-23T10:02:08.405Z,4.28
2019-04-23T10:04:31.913Z,2.55
2019-04-23T10:07:01.691Z,2.17
2019-04-23T10:09:20.815Z,2.00
2019-04-23T10:11:51.126Z,4.30
2019-04-23T10:14:20.950Z,2.63
2019-04-23T10:16:51.664Z,2.45
2019-04-23T10:19:22.561Z,2.98
2019-04-23T10:21:53.398Z,1.35
2019-04-23T10:24:23.473Z,2.17
2019-04-23T10:26:53.022Z,2.43
2019-04-23T10:29:25.604Z,3.23
2019-04-23T10:31:55.638Z,1.37
2019-04-23T10:34:25.401Z,1.82
2019-04-23T10:36:55.617Z,2.60
2019-04-23T10:39:30.315Z,1.87
2019-04-23T10:41:57.644Z,2.25
2019-04-23T10:44:40.708Z,2.40
2019-04-23T10:48:03.091Z,2.37
2019-04-23T10:50:35.841Z,1.72
2019-04-23T10:53:10.230Z,2.25
2019-04-23T10:55:41.070Z,4.72
2019-04-23T10:58:08.308Z,2.37
2019-04-23T11:00:39.203Z,3.00
2019-04-23T11:03:26.658Z,2.40
2019-04-23T11:05:53.939Z,2.33
2019-04-23T11:08:15.566Z,4.90
2019-04-23T11:10:44.347Z,1.67
2019-04-23T11:13:38.248Z,2.33
2019-04-23T11:16:21.592Z,2.95
2019-04-23T11:18:39.951Z,3.60
2019-04-23T11:21:00.576Z,1.62
2019-04-23T11:23:29.123Z,1.40
2019-04-23T11:26:06.999Z,2.10
2019-04-23T11:28:33.598Z,1.30
2019-04-23T11:31:13.434Z,3.80
2019-04-23T11:33:46.081Z,1.90
2019-04-23T11:41:22.745Z,3.12
2019-04-23T11:43:50.074Z,1.22
2019-04-23T11:46:34.333Z,1.22
2019-04-23T11:53:58.131Z,1.32
2019-04-23T11:58:59.700Z,2.70
2019-04-23T12:01:42.123Z,1.40
2019-04-23T12:04:24.307Z,2.63
2019-04-23T12:09:40.101Z,1.62
2019-04-23T12:12:11.244Z,2.25
2019-04-23T12:14:35.220Z,1.40
2019-04-23T12:17:08.178Z,1.75
2019-04-23T12:22:15.557Z,2.45
2019-04-23T12:24:58.594Z,0.80
2019-04-23T12:27:08.047Z,1.46
2019-04-23T12:32:45.052Z,1.37
2019-04-23T12:37:41.282Z,0.90
2019-04-23T12:45:25.095Z,1.83
2019-04-23T12:55:23.405Z,2.00
2019-04-23T13:00:25.698Z,1.07
2019-04-23T13:08:00.464Z,1.56
2019-04-23T13:13:11.450Z,1.98
2019-04-23T13:15:34.551Z,2.40
2019-04-23T13:18:03.313Z,3.95
2019-04-23T13:20:36.880Z,0.93
2019-04-23T13:23:16.543Z,0.70
2019-04-23T13:28:21.088Z,2.40
2019-04-23T13:38:32.099Z,0.70
2019-04-23T13:48:24.880Z,0.63
2019-04-23T13:51:07.271Z,0.60
2019-04-23T13:56:09.177Z,0.70
2019-04-23T14:01:22.828Z,0.50
2019-04-23T14:03:45.517Z,1.17
2019-04-23T14:06:29.683Z,1.00
2019-04-23T14:11:26.292Z,1.15
2019-04-23T14:21:28.580Z,0.83
2019-04-23T14:26:35.201Z,0.60
2019-04-23T14:28:52.654Z,1.55
2019-04-23T14:31:23.219Z,1.27
2019-04-23T14:44:10.407Z,1.73
2019-04-23T14:49:22.083Z,0.70
2019-04-23T14:54:34.574Z,1.05
2019-04-23T14:56:58.926Z,1.25
2019-04-23T14:59:13.426Z,0.70
2019-04-23T15:01:55.027Z,2.53
2019-04-23T15:04:36.162Z,1.43
2019-04-23T15:09:35.187Z,2.37
2019-04-23T15:12:11.838Z,2.34
2019-04-23T15:14:46.238Z,0.70
2019-04-23T15:17:06.640Z,2.35
2019-04-23T15:22:20.192Z,1.17
2019-04-23T15:25:03.774Z,1.07
2019-04-23T15:29:49.676Z,1.37
2019-04-23T15:32:34.459Z,0.80
2019-04-23T15:35:08.825Z,0.60
2019-04-23T15:40:11.225Z,1.65
2019-04-23T15:45:09.590Z,3.37
2019-04-23T15:47:45.355Z,3.27
2019-04-23T15:55:12.335Z,2.12
2019-04-23T16:00:13.057Z,6.07
2019-04-23T16:02:21.408Z,4.45
2019-04-23T16:04:51.295Z,2.50
2019-04-23T16:07:38.957Z,4.37
2019-04-23T16:12:56.798Z,5.40
2019-04-23T16:15:27.054Z,9.25
2019-04-23T16:18:22.125Z,3.20
2019-04-23T16:23:21.434Z,3.63
2019-04-23T16:25:50.346Z,5.37
2019-04-23T16:30:49.070Z,5.40
2019-04-23T16:33:20.068Z,5.37
2019-04-23T16:36:05.567Z,5.45
2019-04-23T16:41:09.241Z,6.80
2019-04-23T16:43:38.205Z,8.43
2019-04-23T16:46:07.669Z,9.37
2019-04-23T16:51:22.062Z,6.87
2019-04-23T16:53:37.683Z,7.17
2019-04-23T16:58:54.633Z,6.15
2019-04-23T17:03:55.361Z,4.70
2019-04-23T17:06:15.913Z,6.63
2019-04-23T17:09:05.216Z,2.98
2019-04-23T17:11:17.538Z,6.90
2019-04-23T17:13:54.325Z,6.75
2019-04-23T17:16:28.527Z,6.83
2019-04-23T17:21:38.982Z,7.67
2019-04-23T17:24:08.089Z,4.30
2019-04-23T17:26:28.706Z,6.70
2019-04-23T17:31:35.469Z,8.55
2019-04-23T17:34:09.087Z,4.37
2019-04-23T17:39:18.131Z,8.50
2019-04-23T17:42:01.933Z,7.78
2019-04-23T17:46:52.328Z,6.00
2019-04-23T17:49:33.277Z,4.10
2019-04-23T17:54:45.221Z,4.43
2019-04-23T17:57:15.356Z,5.83
2019-04-23T18:00:08.370Z,6.30
2019-04-23T18:07:43.797Z,5.95
2019-04-23T18:12:39.080Z,9.68
2019-04-23T18:15:02.913Z,6.15
2019-04-23T18:17:34.332Z,5.93
2019-04-23T18:20:14.935Z,5.10
2019-04-23T18:22:47.115Z,5.17
2019-04-23T18:25:30.777Z,6.53
2019-04-23T18:27:52.885Z,3.65
2019-04-23T18:30:25.919Z,4.03
2019-04-23T18:33:31.700Z,8.32
2019-04-23T18:35:29.752Z,3.77
2019-04-23T18:38:05.446Z,2.55
2019-04-23T18:40:53.102Z,4.45
2019-04-23T18:43:20.613Z,5.28
2019-04-23T18:48:21.291Z,14.28
2019-04-23T18:50:55.270Z,10.07
2019-04-23T18:53:29.751Z,5.07
2019-04-23T18:58:23.935Z,6.23
2019-04-23T19:00:56.868Z,8.03
2019-04-23T19:03:42.574Z,8.07
2019-04-23T19:06:15.001Z,7.63
2019-04-23T19:11:13.802Z,6.80
2019-04-23T19:13:44.610Z,9.27
2019-04-23T19:16:16.560Z,5.65
2019-04-23T19:18:52.630Z,4.73
2019-04-23T19:21:38.772Z,6.40
2019-04-23T19:23:50.897Z,5.90
2019-04-23T19:26:49.812Z,6.05
2019-04-23T19:36:52.809Z,3.93
2019-04-23T19:39:22.324Z,6.57
2019-04-23T19:49:21.436Z,6.50
2019-04-23T19:51:51.160Z,3.10
2019-04-23T19:54:26.091Z,8.63
2019-04-23T19:59:23.435Z,6.53
2019-04-23T20:01:58.921Z,8.30
2019-04-23T20:04:25.334Z,5.67
2019-04-23T20:07:12.602Z,7.47
2019-04-23T20:12:01.393Z,4.07
2019-04-23T20:14:34.579Z,8.27
2019-04-23T20:17:17.596Z,5.70
2019-04-23T20:19:43.031Z,7.53
2019-04-23T20:22:06.261Z,5.27
2019-04-23T20:29:56.811Z,7.83
2019-04-23T20:35:05.064Z,6.20
2019-04-23T20:37:07.904Z,6.63
2019-04-23T20:39:50.574Z,3.47
2019-04-23T20:42:18.271Z,3.25
2019-04-23T20:44:53.483Z,4.63
2019-04-23T20:49:48.408Z,4.53
2019-04-23T20:52:30.089Z,6.33
2019-04-23T21:00:03.574Z,3.63
2019-04-23T21:05:09.762Z,4.50
2019-04-23T21:12:58.228Z,5.37
2019-04-23T21:15:21.817Z,5.30
2019-04-23T21:20:26.595Z,5.23
2019-04-23T21:22:59.093Z,4.22
2019-04-23T21:25:22.221Z,3.30
2019-04-23T21:30:49.985Z,7.07
2019-04-23T21:33:11.703Z,12.10
2019-04-23T21:36:12.506Z,9.33
2019-04-23T21:39:04.406Z,6.50
2019-04-23T21:41:30.343Z,9.53
2019-04-23T21:44:52.794Z,4.83
2019-04-23T21:46:28.145Z,6.97
2019-04-23T21:49:09.085Z,7.57
2019-04-23T21:53:55.527Z,5.63
2019-04-23T21:56:31.218Z,7.20
2019-04-23T22:01:36.640Z,4.77
2019-04-23T22:11:58.520Z,5.47
2019-04-23T22:14:10.279Z,3.90
2019-04-23T22:21:50.279Z,7.05
2019-04-23T22:24:10.345Z,7.65
2019-04-23T22:26:49.452Z,4.63
2019-04-23T22:34:22.207Z,5.93
2019-04-23T22:37:04.621Z,6.83
2019-04-23T22:39:25.365Z,5.53
2019-04-23T22:44:30.434Z,6.35
2019-04-23T22:49:41.986Z,4.67
2019-04-23T22:52:08.745Z,5.17
2019-04-23T22:54:35.857Z,6.00
2019-04-23T22:57:05.000Z,7.83
2019-04-23T22:59:47.041Z,5.83
2019-04-23T23:02:14.792Z,3.13
2019-04-23T23:05:04.146Z,7.37
2019-04-23T23:07:24.497Z,8.40
2019-04-23T23:12:26.574Z,8.27
2019-04-23T23:14:54.739Z,4.08
2019-04-23T23:17:27.080Z,6.70
2019-04-23T23:20:05.773Z,5.47
2019-04-23T23:22:27.485Z,6.05
2019-04-23T23:25:04.650Z,4.00
2019-04-23T23:27:31.683Z,5.97
2019-04-23T23:32:30.975Z,4.47
2019-04-23T23:35:24.632Z,7.60
2019-04-23T23:37:34.347Z,4.60
2019-04-23T23:40:14.693Z,6.40
2019-04-23T23:42:43.332Z,6.20
2019-04-23T23:45:19.668Z,6.23
2019-04-23T23:47:37.910Z,10.03
2019-04-23T23:50:19.555Z,8.25
2019-04-23T23:52:48.565Z,4.40
2019-04-23T23:55:16.468Z,6.40
2019-04-23T23:57:51.392Z,5.73
